Flight Track Log - Related Links

Times and Time Zones

All times are in EDT time to prevent confusion due to time zone crossing. See the SKW6345 flight status page for this flight to view local times or setup timezone preferences in your user account.

Time Position Orientation Groundspeed Altitude Reporting Facility
EDT Latitude Longitude Course Direction KTS MPH feet Rate Location/Type
Sat 11:30:03 AM 37.6500 -122.3333 38° Northeast 170 196 1,700  Level Northern Cal TRACON
Sat 11:31:03 AM 37.6833 -122.2833 50° Northeast 204 235 3,900 2,141 Climbing Northern Cal TRACON
Sat 11:32:00 AM 37.6641 -122.3193 38° Northeast  Level FlightAware Approximate
Sat 11:33:00 AM 37.7618 -122.2216 38° Northeast  Level FlightAware Approximate
Sat 11:33:08 AM 37.7981 -122.1642 39° Northeast 268 308 8,300  Level Oakland Center
Sat 11:34:00 AM 37.8596 -122.1238 38° Northeast  Level FlightAware Approximate
Sat 11:34:10 AM 37.8617 -122.1058 36° Northeast 280 322 10,600  Level Oakland Center
Sat 11:35:00 AM 37.9574 -122.0259 38° Northeast  Level FlightAware Approximate
Sat 11:35:11 AM 37.9269 -122.0444 37° Northeast 291 335 12,600  Level Oakland Center
Sat 11:36:12 AM 37.9936 -121.9806 37° Northeast 302 348 14,500 1,869 Climbing Oakland Center
Sat 11:37:13 AM 38.0636 -121.9136 37° Northeast 315 362 16,400 1,854 Climbing Oakland Center
Sat 11:38:15 AM 38.1500 -121.8328 36° Northeast 323 372 18,300 1,659 Climbing Oakland Center
Sat 11:39:16 AM 38.2247 -121.7608 37° Northeast 334 384 19,800 1,377 Climbing Oakland Center
Sat 11:40:17 AM 38.3028 -121.6875 36° Northeast 344 396 21,100 1,180 Climbing Oakland Center
Sat 11:41:18 AM 38.3808 -121.6117 37° Northeast 352 405 22,200 1,220 Climbing Oakland Center
Sat 11:42:20 AM 38.4636 -121.5189 41° Northeast 365 420 23,600 1,171 Climbing Oakland Center
Sat 11:43:21 AM 38.5206 -121.4219 53° Northeast 376 433 24,600 934 Climbing Oakland Center
Sat 11:44:22 AM 38.5964 -121.3294 44° Northeast 379 436 25,500 1,024 Climbing Oakland Center
Sat 11:45:24 AM 38.6900 -121.2194 43° Northeast 389 448 26,700 927 Climbing Oakland Center
Sat 11:46:25 AM 38.7692 -121.1236 43° Northeast 391 450 27,400 738 Climbing Oakland Center
Sat 11:47:26 AM 38.8503 -121.0267 43° Northeast 397 457 28,200 829 Climbing Oakland Center
Sat 11:48:28 AM 38.9308 -120.9275 44° Northeast 400 460 29,100 927 Climbing Oakland Center
Sat 11:49:29 AM 39.0119 -120.8294 43° Northeast 401 461 30,100 885 Climbing Oakland Center
Sat 11:50:30 AM 39.0919 -120.7317 43° Northeast 398 458 30,900 738 Climbing Oakland Center
Sat 11:51:31 AM 39.1725 -120.6331 43° Northeast 398 458 31,600 683 Climbing Oakland Center
Sat 11:52:33 AM 39.2531 -120.5342 44° Northeast 400 460 32,300 683 Climbing Oakland Center
Sat 11:53:34 AM 39.3336 -120.4367 43° Northeast 398 458 33,000 344 Climbing Oakland Center
Sat 11:54:35 AM 39.4147 -120.3369 44° Northeast 401 461 33,000  Level Oakland Center
Sat 11:55:37 AM 39.4947 -120.2372 44° Northeast 401 461 33,000  Level Oakland Center
Sat 11:56:38 AM 39.5922 -120.1181 43° Northeast 403 464 33,000  Level Oakland Center
Sat 11:57:39 AM 39.6656 -120.0264 44° Northeast 401 461 33,000  Level Oakland Center
Sat 11:58:41 AM 39.7453 -119.9250 44° Northeast 400 460 33,000  Level Oakland Center
Sat 11:59:42 AM 39.8250 -119.8261 44° Northeast 396 456 33,000  Level Oakland Center
Sat 12:00:43 PM 39.9064 -119.7244 44° Northeast 401 461 33,000  Level Oakland Center
Sat 12:01:45 PM 40.0019 -119.6028 44° Northeast 399 459 33,000  Level Oakland Center
Sat 12:02:46 PM 40.0814 -119.5022 44° Northeast 398 458 33,000  Level Oakland Center
Sat 12:03:48 PM 40.1606 -119.4014 44° Northeast 397 457 33,000  Level Oakland Center
Sat 12:04:49 PM 40.2392 -119.3019 44° Northeast 393 452 33,000  Level Oakland Center
Sat 12:05:50 PM 40.3183 -119.2003 44° Northeast 396 456 33,000  Level Oakland Center
Sat 12:06:52 PM 40.3958 -119.1011 44° Northeast 391 450 33,000  Level Oakland Center
Sat 12:07:53 PM 40.4736 -118.9989 45° Northeast 393 452 33,000  Level Oakland Center
Sat 12:08:54 PM 40.5514 -118.9000 44° Northeast 391 450 33,000  Level Oakland Center
Sat 12:09:56 PM 40.6286 -118.7978 45° Northeast 391 450 33,000  Level Oakland Center
Sat 12:10:57 PM 40.7056 -118.6972 45° Northeast 390 449 33,000  Level Oakland Center
Sat 12:11:59 PM 40.7828 -118.5964 45° Northeast 390 449 33,000  Level Oakland Center
Sat 12:13:00 PM 40.8675 -118.4856 45° Northeast 390 449 33,000  Level Oakland Center
Sat 12:14:02 PM 40.9419 -118.3881 45° Northeast 392 451 33,000  Level Oakland Center
Sat 12:15:03 PM 41.0294 -118.2725 45° Northeast 390 449 33,000  Level Oakland Center
Sat 12:16:04 PM 41.1014 -118.1778 45° Northeast 390 449 33,000  Level Oakland Center
Sat 12:16:34 PM 41.1383 -118.1289 45° Northeast 390 449 33,000  Level Salt Lake Center
Sat 12:17:36 PM 41.2242 -118.0158 45° Northeast 389 448 33,000  Level Salt Lake Center
Sat 12:18:38 PM 41.2961 -117.9178 46° Northeast 388 447 33,000  Level Salt Lake Center
Sat 12:19:40 PM 41.3811 -117.8033 45° Northeast 387 445 33,000  Level Salt Lake Center
Sat 12:20:42 PM 41.4539 -117.7053 45° Northeast 388 447 33,000  Level Salt Lake Center
Sat 12:21:44 PM 41.5389 -117.5900 45° Northeast 390 449 33,000  Level Salt Lake Center
Sat 12:22:46 PM 41.6119 -117.4919 45° Northeast 390 449 33,000  Level Salt Lake Center
Sat 12:23:48 PM 41.6969 -117.3753 46° Northeast 390 449 33,000  Level Salt Lake Center
Sat 12:24:51 PM 41.7694 -117.2717 47° Northeast 396 456 33,000  Level Salt Lake Center
Sat 12:25:53 PM 41.8411 -117.1744 45° Northeast 384 442 33,000  Level Salt Lake Center
Sat 12:26:55 PM 41.9250 -117.0589 46° Northeast 383 441 33,000  Level Salt Lake Center
Sat 12:27:57 PM 41.9958 -116.9589 46° Northeast 381 438 33,000  Level Salt Lake Center
Sat 12:28:59 PM 42.0794 -116.8431 46° Northeast 386 444 33,000  Level Salt Lake Center
Sat 12:30:01 PM 42.1494 -116.7456 46° Northeast 380 437 33,000  Level Salt Lake Center
Sat 12:31:03 PM 42.2303 -116.6328 46° Northeast 372 428 33,000  Level Salt Lake Center
Sat 12:32:05 PM 42.3011 -116.5331 46° Northeast 383 441 33,000  Level Salt Lake Center
Sat 12:33:07 PM 42.3814 -116.4197 46° Northeast 376 433 33,000  Level Salt Lake Center
Sat 12:34:09 PM 42.4508 -116.3231 46° Northeast 374 430 33,000  Level Salt Lake Center
Sat 12:35:11 PM 42.5314 -116.2097 46° Northeast 373 429 33,000  Level Salt Lake Center
Sat 12:36:13 PM 42.6006 -116.1114 46° Northeast 376 433 33,000  Level Salt Lake Center
Sat 12:37:15 PM 42.6814 -115.9958 46° Northeast 378 435 33,000  Level Salt Lake Center
Sat 12:38:17 PM 42.7511 -115.8950 47° Northeast 382 440 33,000  Level Salt Lake Center
Sat 12:39:19 PM 42.8325 -115.7772 47° Northeast 383 441 33,000  Level Salt Lake Center
Sat 12:40:21 PM 42.9033 -115.6750 47° Northeast 387 445 33,000  Level Salt Lake Center
Sat 12:41:23 PM 42.9733 -115.5728 47° Northeast 386 444 33,000  Level Salt Lake Center
Sat 12:42:25 PM 43.0564 -115.4544 46° Northeast 386 444 33,000  Level Salt Lake Center
Sat 12:43:27 PM 43.1269 -115.3500 47° Northeast 391 450 33,000  Level Salt Lake Center
Sat 12:44:29 PM 43.2106 -115.2283 47° Northeast 393 452 33,000  Level Salt Lake Center
Sat 12:45:31 PM 43.2814 -115.1242 47° Northeast 391 450 33,000  Level Salt Lake Center
Sat 12:46:33 PM 43.3653 -114.9994 47° Northeast 396 456 33,000  Level Salt Lake Center
Sat 12:47:35 PM 43.4358 -114.8953 47° Northeast 391 450 33,000  Level Salt Lake Center
Sat 12:48:37 PM 43.5192 -114.7703 47° Northeast 395 455 33,000  Level Salt Lake Center
Sat 12:49:39 PM 43.5886 -114.6644 48° Northeast 392 451 33,000  Level Salt Lake Center
Sat 12:50:41 PM 43.6706 -114.5414 47° Northeast 390 449 33,000  Level Salt Lake Center
Sat 12:51:43 PM 43.7397 -114.4361 48° Northeast 388 447 33,000  Level Salt Lake Center
Sat 12:52:45 PM 43.8203 -114.3139 48° Northeast 384 442 33,000  Level Salt Lake Center
Sat 12:53:47 PM 43.8892 -114.2092 48° Northeast 382 440 33,000  Level Salt Lake Center
Sat 12:54:50 PM 43.9692 -114.0872 48° Northeast 381 438 33,000  Level Salt Lake Center
Sat 12:55:51 PM 44.0381 -113.9822 48° Northeast 384 442 33,000  Level Salt Lake Center
Sat 12:56:53 PM 44.1078 -113.8750 48° Northeast 379 436 33,000  Level Salt Lake Center
Sat 12:57:55 PM 44.1839 -113.7528 49° Northeast 375 432 33,000  Level Salt Lake Center
Sat 12:58:57 PM 44.2533 -113.6486 47° Northeast 381 438 33,000  Level Salt Lake Center
Sat 12:59:59 PM 44.3308 -113.5250 49° Northeast 381 438 33,000  Level Salt Lake Center
Sat 01:01:01 PM 44.3983 -113.4197 48° Northeast 380 437 33,000  Level Salt Lake Center
Sat 01:02:03 PM 44.4758 -113.2958 49° Northeast 379 436 33,000  Level Salt Lake Center
Sat 01:03:05 PM 44.5447 -113.1886 48° Northeast 384 442 33,000  Level Salt Lake Center
Sat 01:04:07 PM 44.6247 -113.0628 48° Northeast 387 445 33,000  Level Salt Lake Center
Sat 01:05:09 PM 44.6925 -112.9528 49° Northeast 390 449 33,000  Level Salt Lake Center
Sat 01:06:10 PM 44.7617 -112.8436 48° Northeast 390 449 33,000  Level Salt Lake Center
Sat 01:07:12 PM 44.8428 -112.7131 49° Northeast 396 456 33,000  Level Salt Lake Center
Sat 01:08:14 PM 44.9114 -112.6011 49° Northeast 395 455 33,000 -48 Level Salt Lake Center
Sat 01:09:16 PM 44.9928 -112.4694 49° Northeast 397 457 32,900 -1,161 Descending Salt Lake Center
Sat 01:10:18 PM 45.0631 -112.3539 49° Northeast 402 463 30,600 -2,468 Descending Salt Lake Center
Sat 01:11:20 PM 45.1483 -112.2192 48° Northeast 409 471 27,800 -2,565 Descending Salt Lake Center
Sat 01:12:22 PM 45.2219 -112.1169 44° Northeast 390 449 25,300 -2,371 Descending Salt Lake Center
Sat 01:13:24 PM 45.3125 -112.0497 28° Northeast 373 429 22,900 -2,371 Descending Salt Lake Center
Sat 01:14:26 PM 45.4003 -111.9800 29° Northeast 363 418 20,400 -2,488 Descending Salt Lake Center
Sat 01:15:27 PM 45.4819 -111.9003 34° Northeast 357 411 17,800 -2,683 Descending Salt Lake Center
Sat 01:16:29 PM 45.5833 -111.8206 29° Northeast 350 403 14,900 -2,323 Descending Salt Lake Center
Sat 01:17:31 PM 45.6689 -111.7667 24° Northeast 339 390 13,000 -968 Descending Salt Lake Center
Sat 01:18:33 PM 45.7514 -111.7014 29° Northeast 336 387 12,900 -1,016 Descending Salt Lake Center
Sat 01:19:35 PM 45.8331 -111.6381 28° Northeast 335 386 10,900 -1,548 Descending Salt Lake Center
Sat 01:20:37 PM 45.9056 -111.5806 29° Northeast 316 364 9,700 -1,065 Descending Salt Lake Center
Sat 01:21:39 PM 45.9628 -111.5183 37° Northeast 281 323 8,700 -823 Descending Salt Lake Center
Sat 01:22:41 PM 45.9675 -111.4164 86° East 281 323 8,000 -677 Descending Salt Lake Center

Login

Don't have an account? Register now (free) for customized features, flight alerts, and more!